Grissom ARB Airport
KGUS : now visible

Airfield :











YOU CAN JOIN US ON...

 
LOGIN :

Register | Disclaimer

   EN    FR    IT 

 









Legend :    VFR   Marginal VFR   IFR   Intensive IFR   Very Intensive IFR
Visi :
Ceiling :
>= 8 km
>= 3000ft
5 to 8 km
1000 to 3000 ft
1500m to 5 km
500 to 1000 ft
800 to 1500m
200 to 500 ft
< 800m
< 200 ft
Symbols :   Thunderstorms  Fog  Heavy snow  Heavy precipitations  Wind > 20 kt







- Airport Elevation : 812 ft


KGUS - Grissom ARB

CURRENT METAR :
  • 211356Z AUTO 00000KT 10SM CLR 10/04 A3003 RMK AO2 SLP176 T00970037 $

EXPIRED METARs :
  • 211256Z AUTO 00000KT 10SM CLR 05/05 A3003 RMK AO2 SLP178 T00530053 $
  • 211156Z AUTO 24004KT 10SM CLR 01/01 A3000 RMK AO2 SLP168 70015 T00070007 10029 21017 52026 $
  • 211056Z AUTO 23005KT 10SM BR CLR 00/00 A2997 RMK AO2 SLP158 T00020002 $

TAF TAF KGUS
Valid from the 21 at 11:00 until the 22 at 17:00 UTC


211100Z 2111/2217 VRB06KT 9999 FEW090 QNH2997INS
TEMPO 2111/2113 2400 BR TX17/2122Z TN00/2111Z
KZAU FIR / North America



MET'MAP, your aeronautical weather chart ! - Copyright ORBIFLY December 2007 - Disclaimer

ORBIFLY MET'MAP TEAM :

Programming & Development : Alexandra Zaïnal
Concept & Development : Baudouin d'Aumeries
Co-Development & Prog : Marc-Olivier Méhu
Technical & hardware support : Manuel Goepfert

Contact : metmap@orbifly.com




SOURCES & CREDITS :

   NOAA       Earth
Advisory